Time;durP1;ratioP1;P1;durP2;ratioP2;P2;SDS_P1;SDS_P2;PMS_P1;PMS_P2;Temp;Humidity;BMP_temperature;BMP_pressure;BME280_temperature;BME280_humidity;BME280_pressure;Samples;Min_cycle;Max_cycle;Signal;HPM_P1;HPM_P2
2022/10/26 00:00:07;;;;;;;;;;;;;;;;;;5033340;28;19917;-61
2022/10/26 00:02:33;;;;;;;;;;;;;;;;;;5034072;28;19914;-63
2022/10/26 00:04:59;;;;;;;;;;;;;;;;;;5033969;28;19909;-66
2022/10/26 00:07:25;;;;;;;;;;;;;;;;;;5034058;28;19963;-66
2022/10/26 00:09:51;;;;;;;;;;;;;;;;;;5034375;28;19916;-67
2022/10/26 00:12:16;;;;;;;;;;;;;;;;;;5033709;28;19909;-66
2022/10/26 00:14:42;;;;;;;;;;;;;;;;;;5033711;28;20378;-65
2022/10/26 00:17:08;;;;;;;;;;;;;;;;;;5030076;28;20008;-63
2022/10/26 00:19:34;;;;;;;;;;;;;;;;;;5034104;28;19909;-64
2022/10/26 00:22:00;;;;;;;;;;;;;;;;;;5033746;28;19917;-65
2022/10/26 00:24:26;;;;;;;;;;;;;;;;;;5033689;28;20290;-65
2022/10/26 00:26:52;;;;;;;;;;;;;;;;;;5033935;28;19916;-65
2022/10/26 00:29:18;;;;;;;;;;;;;;;;;;5033155;28;19909;-65
2022/10/26 00:31:44;;;;;;;;;;;;;;;;;;5033927;28;20389;-66
2022/10/26 00:34:09;;;;;;;;;;;;;;;;;;5033174;28;19917;-63
2022/10/26 00:36:35;;;;;;;;;;;;;;;;;;5033194;28;20263;-63
2022/10/26 00:39:01;;;;;;;;;;;;;;;;;;5033348;28;20000;-65
2022/10/26 00:41:27;;;;;;;;;;;;;;;;;;5033052;28;19936;-63
2022/10/26 00:43:53;;;;;;;;;;;;;;;;;;5033740;28;19909;-65
2022/10/26 00:46:19;;;;;;;;;;;;;;;;;;5032904;28;20477;-63
2022/10/26 00:48:45;;;;;;;;;;;;;;;;;;5032733;28;19921;-65
2022/10/26 00:51:11;;;;;;;;;;;;;;;;;;5033242;28;20791;-66
2022/10/26 00:53:36;;;;;;;;;;;;;;;;;;5033289;28;19949;-64
2022/10/26 00:56:02;;;;;;;;;;;;;;;;;;5031714;28;19939;-65
2022/10/26 00:58:28;;;;;;;;;;;;;;;;;;5032854;28;19910;-65
2022/10/26 01:00:54;;;;;;;;;;;;;;;;;;5032536;28;19913;-65
2022/10/26 01:03:20;;;;;;;;;;;;;;;;;;5032890;28;20016;-64
2022/10/26 01:05:46;;;;;;;;;;;;;;;;;;5032963;28;19909;-63
2022/10/26 01:08:12;;;;;;;;;;;;;;;;;;5032872;28;20008;-64
2022/10/26 01:10:38;;;;;;;;;;;;;;;;;;5032971;28;20032;-64
2022/10/26 01:13:04;;;;;;;;;;;;;;;;;;5032378;28;19940;-65
2022/10/26 01:15:30;;;;;;;;;;;;;;;;;;5032339;28;20017;-66
2022/10/26 01:17:56;;;;;;;;;;;;;;;;;;5032867;28;20370;-64
2022/10/26 01:20:21;;;;;;;;;;;;;;;;;;5032911;28;19920;-66
2022/10/26 01:22:47;;;;;;;;;;;;;;;;;;5032470;28;19909;-66
2022/10/26 01:25:13;;;;;;;;;;;;;;;;;;5032446;28;19966;-66
2022/10/26 01:27:39;;;;;;;;;;;;;;;;;;5032789;28;20263;-66
2022/10/26 01:30:05;;;;;;;;;;;;;;;;;;5032005;28;19913;-67
2022/10/26 01:32:31;;;;;;;;;;;;;;;;;;5032812;28;20293;-65
2022/10/26 01:34:57;;;;;;;;;;;;;;;;;;5032215;28;19924;-65
2022/10/26 01:37:23;;;;;;;;;;;;;;;;;;5032525;28;19957;-64
2022/10/26 01:39:48;;;;;;;;;;;;;;;;;;5031860;28;20014;-65
2022/10/26 01:42:14;;;;;;;;;;;;;;;;;;5031708;28;19909;-64
2022/10/26 01:44:41;;;;;;;;;;;;;;;;;;5031760;28;19913;-64
2022/10/26 01:47:07;;;;;;;;;;;;;;;;;;5032800;28;19915;-66
2022/10/26 01:49:33;;;;;;;;;;;;;;;;;;5031831;28;19921;-67
2022/10/26 01:51:59;;;;;;;;;;;;;;;;;;5031551;28;20401;-67
2022/10/26 01:54:25;;;;;;;;;;;;;;;;;;5031972;28;19960;-68
2022/10/26 01:56:51;;;;;;;;;;;;;;;;;;5032004;28;19913;-65
2022/10/26 01:59:16;;;;;;;;;;;;;;;;;;5031595;28;19913;-67
2022/10/26 02:01:43;;;;;;;;;;;;;;;;;;5032043;28;20008;-66
2022/10/26 02:04:08;;;;;;;;;;;;;;;;;;5031568;28;19909;-66
2022/10/26 02:06:34;;;;;;;;;;;;;;;;;;5031373;28;19971;-66
2022/10/26 02:09:00;;;;;;;;;;;;;;;;;;5032286;28;19913;-63
2022/10/26 02:11:26;;;;;;;;;;;;;;;;;;5031281;28;19917;-65
2022/10/26 02:13:52;;;;;;;;;;;;;;;;;;5032093;28;19917;-67
2022/10/26 02:16:18;;;;;;;;;;;;;;;;;;5031581;28;19916;-66
2022/10/26 02:18:44;;;;;;;;;;;;;;;;;;5031415;28;20051;-67
2022/10/26 02:21:10;;;;;;;;;;;;;;;;;;5031703;28;19916;-66
2022/10/26 02:23:35;;;;;;;;;;;;;;;;;;5032168;28;19909;-66
2022/10/26 02:26:01;;;;;;;;;;;;;;;;;;5031171;28;19909;-65
2022/10/26 02:28:27;;;;;;;;;;;;;;;;;;5031603;28;20616;-68
2022/10/26 02:30:53;;;;;;;;;;;;;;;;;;5030663;28;19909;-65
2022/10/26 02:33:19;;;;;;;;;;;;;;;;;;5031500;28;19913;-64
2022/10/26 02:35:45;;;;;;;;;;;;;;;;;;5031451;28;19921;-66
2022/10/26 02:38:11;;;;;;;;;;;;;;;;;;5031257;28;19920;-64
2022/10/26 02:40:37;;;;;;;;;;;;;;;;;;5031366;28;19955;-67
2022/10/26 02:43:02;;;;;;;;;;;;;;;;;;5027078;28;19989;-65
2022/10/26 02:45:28;;;;;;;;;;;;;;;;;;5028857;28;19915;-64
2022/10/26 02:47:54;;;;;;;;;;;;;;;;;;5031235;28;19909;-66
2022/10/26 02:50:20;;;;;;;;;;;;;;;;;;5031206;28;20000;-65
2022/10/26 02:52:46;;;;;;;;;;;;;;;;;;5030501;28;20199;-65
2022/10/26 02:55:12;;;;;;;;;;;;;;;;;;5030929;28;19925;-65
2022/10/26 02:57:40;;;;;;;;;;;;;;;;;;5030917;28;19916;-65
2022/10/26 03:00:06;;;;;;;;;;;;;;;;;;5031075;28;19913;-66
2022/10/26 03:02:32;;;;;;;;;;;;;;;;;;5030584;28;19948;-65
2022/10/26 03:04:58;;;;;;;;;;;;;;;;;;5031075;28;19909;-67
2022/10/26 03:07:24;;;;;;;;;;;;;;;;;;5031544;28;20004;-65
2022/10/26 03:09:50;;;;;;;;;;;;;;;;;;5030824;28;19920;-63
2022/10/26 03:12:16;;;;;;;;;;;;;;;;;;5031009;28;19909;-66
2022/10/26 03:14:42;;;;;;;;;;;;;;;;;;5031027;28;20063;-65
2022/10/26 03:17:08;;;;;;;;;;;;;;;;;;5031036;28;19960;-62
2022/10/26 03:19:34;;;;;;;;;;;;;;;;;;5030796;28;19919;-64
2022/10/26 03:22:00;;;;;;;;;;;;;;;;;;5030678;28;19928;-65
2022/10/26 03:24:25;;;;;;;;;;;;;;;;;;5030404;28;20450;-66
2022/10/26 03:26:51;;;;;;;;;;;;;;;;;;5031216;28;19913;-66
2022/10/26 03:29:17;;;;;;;;;;;;;;;;;;5042820;28;20003;-66
2022/10/26 03:31:43;;;;;;;;;;;;;;;;;;5030406;28;19920;-65
2022/10/26 03:34:09;;;;;;;;;;;;;;;;;;5030622;28;19917;-64
2022/10/26 03:36:35;;;;;;;;;;;;;;;;;;5030869;28;20003;-64
2022/10/26 03:39:01;;;;;;;;;;;;;;;;;;5030237;28;19916;-63
2022/10/26 03:41:26;;;;;;;;;;;;;;;;;;5030630;28;20058;-64
2022/10/26 03:43:52;;;;;;;;;;;;;;;;;;5030755;28;19916;-64
2022/10/26 03:46:18;;;;;;;;;;;;;;;;;;5030520;28;19913;-66
2022/10/26 03:48:44;;;;;;;;;;;;;;;;;;5030387;28;19971;-63
2022/10/26 03:51:10;;;;;;;;;;;;;;;;;;5030508;28;19967;-64
2022/10/26 03:53:36;;;;;;;;;;;;;;;;;;5030927;28;20008;-65
2022/10/26 03:56:02;;;;;;;;;;;;;;;;;;5030478;28;19967;-66
2022/10/26 03:58:28;;;;;;;;;;;;;;;;;;5030765;28;19920;-64
2022/10/26 04:00:53;;;;;;;;;;;;;;;;;;5030943;28;20000;-64
2022/10/26 04:03:19;;;;;;;;;;;;;;;;;;5030769;28;19968;-66
2022/10/26 04:05:45;;;;;;;;;;;;;;;;;;5033821;28;19913;-66
2022/10/26 04:08:11;;;;;;;;;;;;;;;;;;5031521;28;20297;-65
2022/10/26 04:10:37;;;;;;;;;;;;;;;;;;5029474;28;19909;-64
2022/10/26 04:13:03;;;;;;;;;;;;;;;;;;5034156;28;19909;-65
2022/10/26 04:15:29;;;;;;;;;;;;;;;;;;5033465;28;19918;-67
2022/10/26 04:17:55;;;;;;;;;;;;;;;;;;5034358;28;19909;-66
2022/10/26 04:20:21;;;;;;;;;;;;;;;;;;5033965;28;19963;-66
2022/10/26 04:22:47;;;;;;;;;;;;;;;;;;5033668;28;19941;-66
2022/10/26 04:25:12;;;;;;;;;;;;;;;;;;5033907;28;20386;-64
2022/10/26 04:27:38;;;;;;;;;;;;;;;;;;5033851;28;19909;-65
2022/10/26 04:30:07;;;;;;;;;;;;;;;;;;5033495;28;20378;-65
2022/10/26 04:32:32;;;;;;;;;;;;;;;;;;5033594;28;19909;-65
2022/10/26 04:34:58;;;;;;;;;;;;;;;;;;5033690;28;19921;-66
2022/10/26 04:37:24;;;;;;;;;;;;;;;;;;5033334;28;19913;-63
2022/10/26 04:39:50;;;;;;;;;;;;;;;;;;5032954;28;19959;-67
2022/10/26 04:42:16;;;;;;;;;;;;;;;;;;5032420;28;20000;-65
2022/10/26 04:44:42;;;;;;;;;;;;;;;;;;5033823;28;19910;-65
2022/10/26 04:47:08;;;;;;;;;;;;;;;;;;5033421;28;19909;-65
2022/10/26 04:49:34;;;;;;;;;;;;;;;;;;5028495;28;20394;-63
2022/10/26 04:51:59;;;;;;;;;;;;;;;;;;5031105;28;19946;-66
2022/10/26 04:54:25;;;;;;;;;;;;;;;;;;5033216;28;19921;-64
2022/10/26 04:56:51;;;;;;;;;;;;;;;;;;5033401;28;19913;-64
2022/10/26 04:59:17;;;;;;;;;;;;;;;;;;5033189;28;20453;-64
2022/10/26 05:01:43;;;;;;;;;;;;;;;;;;5032892;28;19913;-65
2022/10/26 05:04:09;;;;;;;;;;;;;;;;;;5033394;28;19909;-66
2022/10/26 05:06:35;;;;;;;;;;;;;;;;;;5032171;28;19913;-67
2022/10/26 05:09:01;;;;;;;;;;;;;;;;;;5032352;28;20074;-65
2022/10/26 05:11:26;;;;;;;;;;;;;;;;;;5032123;28;20385;-66
2022/10/26 05:13:52;;;;;;;;;;;;;;;;;;5032516;28;19909;-65
2022/10/26 05:16:18;;;;;;;;;;;;;;;;;;5032233;28;20586;-64
2022/10/26 05:18:44;;;;;;;;;;;;;;;;;;5032638;28;20362;-63
2022/10/26 05:21:11;;;;;;;;;;;;;;;;;;5031833;28;19960;-65
2022/10/26 05:23:37;;;;;;;;;;;;;;;;;;5032271;28;20000;-65
2022/10/26 05:26:03;;;;;;;;;;;;;;;;;;5032077;28;20051;-65
2022/10/26 05:28:29;;;;;;;;;;;;;;;;;;5032898;28;19910;-64
2022/10/26 05:30:55;;;;;;;;;;;;;;;;;;5031658;28;19913;-65
2022/10/26 05:33:21;;;;;;;;;;;;;;;;;;5032378;28;19920;-65
2022/10/26 05:35:47;;;;;;;;;;;;;;;;;;5024992;28;19917;-65
2022/10/26 05:38:13;;;;;;;;;;;;;;;;;;5031940;28;19959;-64
2022/10/26 05:40:39;;;;;;;;;;;;;;;;;;5031540;28;20008;-64
2022/10/26 05:43:04;;;;;;;;;;;;;;;;;;5031925;28;19910;-65
2022/10/26 05:45:30;;;;;;;;;;;;;;;;;;5031750;28;19913;-64
2022/10/26 05:47:56;;;;;;;;;;;;;;;;;;5031391;28;20353;-65
2022/10/26 05:50:22;;;;;;;;;;;;;;;;;;5031021;28;19964;-64
2022/10/26 05:52:49;;;;;;;;;;;;;;;;;;5032251;28;20004;-65
2022/10/26 05:55:15;;;;;;;;;;;;;;;;;;5032547;28;19917;-63
2022/10/26 05:57:41;;;;;;;;;;;;;;;;;;5031669;28;20460;-65
2022/10/26 06:00:07;;;;;;;;;;;;;;;;;;5031905;28;19909;-65
2022/10/26 06:02:33;;;;;;;;;;;;;;;;;;5031848;28;19936;-64
2022/10/26 06:04:59;;;;;;;;;;;;;;;;;;5031631;28;19962;-64
2022/10/26 06:07:25;;;;;;;;;;;;;;;;;;5031984;28;19909;-63
2022/10/26 06:09:51;;;;;;;;;;;;;;;;;;5023707;28;19913;-64
2022/10/26 06:12:16;;;;;;;;;;;;;;;;;;5031801;28;19920;-65
2022/10/26 06:14:42;;;;;;;;;;;;;;;;;;5031736;28;20461;-65
2022/10/26 06:17:08;;;;;;;;;;;;;;;;;;5031919;28;19913;-65
2022/10/26 06:19:34;;;;;;;;;;;;;;;;;;5031499;28;19996;-62
2022/10/26 06:22:00;;;;;;;;;;;;;;;;;;5031410;28;20381;-64
2022/10/26 06:24:26;;;;;;;;;;;;;;;;;;5032074;28;19963;-64
2022/10/26 06:26:52;;;;;;;;;;;;;;;;;;5030795;28;20000;-64
2022/10/26 06:29:18;;;;;;;;;;;;;;;;;;5030822;28;19909;-62
2022/10/26 06:31:44;;;;;;;;;;;;;;;;;;5031087;28;19909;-63
2022/10/26 06:34:09;;;;;;;;;;;;;;;;;;5029975;28;19920;-63
2022/10/26 06:36:35;;;;;;;;;;;;;;;;;;5031118;28;19916;-68
2022/10/26 06:39:02;;;;;;;;;;;;;;;;;;5023882;28;19952;-69
2022/10/26 06:41:28;;;;;;;;;;;;;;;;;;5031704;28;19910;-67
2022/10/26 06:43:53;;;;;;;;;;;;;;;;;;5031027;28;20329;-67
2022/10/26 06:46:19;;;;;;;;;;;;;;;;;;5030813;28;19913;-69
2022/10/26 06:48:45;;;;;;;;;;;;;;;;;;5030353;28;19913;-68
2022/10/26 06:51:11;;;;;;;;;;;;;;;;;;5031172;28;19917;-67
2022/10/26 06:53:37;;;;;;;;;;;;;;;;;;5031115;28;19909;-63
2022/10/26 06:56:03;;;;;;;;;;;;;;;;;;5031336;28;20352;-62
2022/10/26 06:58:29;;;;;;;;;;;;;;;;;;5022545;28;19917;-62
2022/10/26 07:00:55;;;;;;;;;;;;;;;;;;5028327;28;19974;-63
2022/10/26 07:03:21;;;;;;;;;;;;;;;;;;5029502;28;19913;-62
2022/10/26 07:05:46;;;;;;;;;;;;;;;;;;5030057;28;20366;-62
2022/10/26 07:08:12;;;;;;;;;;;;;;;;;;5029776;28;19920;-62
2022/10/26 07:10:38;;;;;;;;;;;;;;;;;;5029874;28;19909;-62
2022/10/26 07:13:05;;;;;;;;;;;;;;;;;;5029601;28;20027;-61
2022/10/26 07:15:31;;;;;;;;;;;;;;;;;;5029821;28;19925;-62
2022/10/26 07:17:57;;;;;;;;;;;;;;;;;;5028936;28;19932;-63
2022/10/26 07:20:22;;;;;;;;;;;;;;;;;;5029980;28;19910;-63
2022/10/26 07:22:48;;;;;;;;;;;;;;;;;;5029527;28;19909;-61
2022/10/26 07:25:14;;;;;;;;;;;;;;;;;;5029425;28;20388;-64
2022/10/26 07:27:40;;;;;;;;;;;;;;;;;;5029481;28;19944;-60
2022/10/26 07:30:06;;;;;;;;;;;;;;;;;;5029243;28;20408;-63
2022/10/26 07:32:32;;;;;;;;;;;;;;;;;;5029277;28;19913;-64
2022/10/26 07:34:58;;;;;;;;;;;;;;;;;;5029680;28;19928;-62
2022/10/26 07:37:24;;;;;;;;;;;;;;;;;;5029519;28;19913;-61
2022/10/26 07:39:49;;;;;;;;;;;;;;;;;;5031858;28;19909;-62
2022/10/26 07:42:15;;;;;;;;;;;;;;;;;;5031736;28;19963;-62
2022/10/26 07:44:41;;;;;;;;;;;;;;;;;;5033014;28;19917;-60
2022/10/26 07:47:07;;;;;;;;;;;;;;;;;;5032431;28;19913;-63
2022/10/26 07:49:33;;;;;;;;;;;;;;;;;;5033194;28;19932;-63
2022/10/26 07:51:59;;;;;;;;;;;;;;;;;;5032869;28;20005;-61
2022/10/26 07:54:25;;;;;;;;;;;;;;;;;;5030742;28;19917;-62
2022/10/26 07:56:51;;;;;;;;;;;;;;;;;;5033058;28;19917;-62
2022/10/26 07:59:17;;;;;;;;;;;;;;;;;;5032250;28;20338;-62
2022/10/26 08:01:43;;;;;;;;;;;;;;;;;;5032428;28;19913;-63
2022/10/26 08:04:09;;;;;;;;;;;;;;;;;;5032539;28;20424;-63
2022/10/26 08:06:34;;;;;;;;;;;;;;;;;;5032590;28;19909;-63
2022/10/26 08:09:00;;;;;;;;;;;;;;;;;;5032634;28;19913;-62
2022/10/26 08:11:26;;;;;;;;;;;;;;;;;;5032757;28;19913;-64
2022/10/26 08:13:52;;;;;;;;;;;;;;;;;;5032414;28;19909;-61
2022/10/26 08:16:18;;;;;;;;;;;;;;;;;;5032359;28;20414;-62
2022/10/26 08:18:44;;;;;;;;;;;;;;;;;;5032557;28;19909;-63
2022/10/26 08:21:10;;;;;;;;;;;;;;;;;;5032457;28;19982;-62
2022/10/26 08:23:36;;;;;;;;;;;;;;;;;;5032429;28;20322;-63
2022/10/26 08:26:02;;;;;;;;;;;;;;;;;;5032362;28;19910;-62
2022/10/26 08:28:28;;;;;;;;;;;;;;;;;;5032251;28;19924;-64
2022/10/26 08:30:54;;;;;;;;;;;;;;;;;;5032035;28;20342;-62
2022/10/26 08:33:20;;;;;;;;;;;;;;;;;;5032314;28;19909;-63
2022/10/26 08:35:46;;;;;;;;;;;;;;;;;;5030960;28;19963;-62
2022/10/26 08:38:12;;;;;;;;;;;;;;;;;;5030612;28;19913;-63
2022/10/26 08:40:38;;;;;;;;;;;;;;;;;;5031745;28;20442;-63
2022/10/26 08:43:04;;;;;;;;;;;;;;;;;;5030935;28;19916;-62
2022/10/26 08:45:30;;;;;;;;;;;;;;;;;;5031939;28;19910;-62
2022/10/26 08:47:55;;;;;;;;;;;;;;;;;;5031886;28;19916;-60
2022/10/26 08:50:21;;;;;;;;;;;;;;;;;;5031329;28;19967;-62
2022/10/26 08:52:47;;;;;;;;;;;;;;;;;;5031420;28;19909;-63
2022/10/26 08:55:13;;;;;;;;;;;;;;;;;;5031661;28;19921;-61
2022/10/26 08:57:40;;;;;;;;;;;;;;;;;;5031493;28;19909;-61
2022/10/26 09:00:06;;;;;;;;;;;;;;;;;;5031814;28;20067;-64
2022/10/26 09:02:32;;;;;;;;;;;;;;;;;;5031944;28;19963;-64
2022/10/26 09:05:00;;;;;;;;;;;;;;;;;;5031976;28;20369;-60
2022/10/26 09:07:26;;;;;;;;;;;;;;;;;;5030195;28;19909;-64
2022/10/26 09:09:52;;;;;;;;;;;;;;;;;;5031888;28;19916;-62
2022/10/26 09:12:18;;;;;;;;;;;;;;;;;;5031307;28;19999;-63
2022/10/26 09:14:44;;;;;;;;;;;;;;;;;;5031715;28;19925;-63
2022/10/26 09:17:10;;;;;;;;;;;;;;;;;;5031682;28;19999;-63
2022/10/26 09:19:36;;;;;;;;;;;;;;;;;;5031502;28;19985;-61
2022/10/26 09:22:02;;;;;;;;;;;;;;;;;;5031341;28;20296;-62
2022/10/26 09:24:28;;;;;;;;;;;;;;;;;;5031694;28;19964;-62
2022/10/26 09:26:53;;;;;;;;;;;;;;;;;;5030700;28;20381;-62
2022/10/26 09:29:19;;;;;;;;;;;;;;;;;;5031373;28;19914;-62
2022/10/26 09:31:45;;;;;;;;;;;;;;;;;;5031154;28;19992;-62
2022/10/26 09:34:11;;;;;;;;;;;;;;;;;;5031004;28;19971;-63
2022/10/26 09:36:37;;;;;;;;;;;;;;;;;;5030922;28;19924;-64
2022/10/26 09:39:03;;;;;;;;;;;;;;;;;;5031011;28;20480;-61
2022/10/26 09:41:29;;;;;;;;;;;;;;;;;;5030921;28;19974;-63
2022/10/26 09:43:56;;;;;;;;;;;;;;;;;;5030958;28;19909;-65
2022/10/26 09:46:22;;;;;;;;;;;;;;;;;;5031041;28;20027;-62
2022/10/26 09:48:48;;;;;;;;;;;;;;;;;;5029832;28;20012;-62
2022/10/26 09:51:14;;;;;;;;;;;;;;;;;;5031205;28;20286;-62
2022/10/26 09:53:42;;;;;;;;;;;;;;;;;;5023402;28;21509;-62
2022/10/26 09:56:08;;;;;;;;;;;;;;;;;;5029900;28;19956;-63
2022/10/26 09:58:33;;;;;;;;;;;;;;;;;;5030011;28;19963;-63
2022/10/26 10:00:59;;;;;;;;;;;;;;;;;;5029877;28;19917;-62
2022/10/26 10:03:25;;;;;;;;;;;;;;;;;;5030090;28;20027;-62
2022/10/26 10:05:51;;;;;;;;;;;;;;;;;;5030417;28;19917;-62
2022/10/26 10:08:17;;;;;;;;;;;;;;;;;;5023863;28;19913;-61
2022/10/26 10:10:43;;;;;;;;;;;;;;;;;;5030281;28;19964;-64
2022/10/26 10:13:09;;;;;;;;;;;;;;;;;;5030823;28;19914;-60
2022/10/26 10:15:35;;;;;;;;;;;;;;;;;;5030084;28;20365;-61
2022/10/26 10:18:01;;;;;;;;;;;;;;;;;;5030634;28;19967;-61
2022/10/26 10:20:26;;;;;;;;;;;;;;;;;;5030327;28;20389;-61
2022/10/26 10:22:52;;;;;;;;;;;;;;;;;;5028950;28;20035;-62
2022/10/26 10:25:18;;;;;;;;;;;;;;;;;;5029433;28;20405;-60
2022/10/26 10:27:44;;;;;;;;;;;;;;;;;;5030148;28;19964;-61
2022/10/26 10:30:10;;;;;;;;;;;;;;;;;;5029777;28;19917;-63
2022/10/26 10:32:36;;;;;;;;;;;;;;;;;;5029853;28;19917;-61
2022/10/26 10:35:02;;;;;;;;;;;;;;;;;;5029844;28;19922;-60
2022/10/26 10:37:28;;;;;;;;;;;;;;;;;;5029706;28;19916;-62
2022/10/26 10:39:54;;;;;;;;;;;;;;;;;;5029867;28;19917;-62
2022/10/26 10:42:20;;;;;;;;;;;;;;;;;;5030135;28;19916;-63
2022/10/26 10:44:45;;;;;;;;;;;;;;;;;;5030161;28;20012;-61
2022/10/26 10:47:11;;;;;;;;;;;;;;;;;;5029854;28;19917;-63
2022/10/26 10:49:37;;;;;;;;;;;;;;;;;;5030023;28;20609;-61
2022/10/26 10:52:03;;;;;;;;;;;;;;;;;;5029794;28;19909;-61
2022/10/26 10:54:29;;;;;;;;;;;;;;;;;;5029103;28;19939;-62
2022/10/26 10:56:55;;;;;;;;;;;;;;;;;;5028836;28;19916;-62
2022/10/26 10:59:21;;;;;;;;;;;;;;;;;;5030054;28;19909;-62
2022/10/26 11:01:47;;;;;;;;;;;;;;;;;;5030158;28;19909;-62
2022/10/26 11:04:12;;;;;;;;;;;;;;;;;;5028850;28;19914;-62
2022/10/26 11:06:38;;;;;;;;;;;;;;;;;;5028952;28;19909;-61
2022/10/26 11:09:04;;;;;;;;;;;;;;;;;;5029568;28;19913;-60
2022/10/26 11:11:30;;;;;;;;;;;;;;;;;;5029815;28;19913;-62
2022/10/26 11:13:56;;;;;;;;;;;;;;;;;;5032583;28;19909;-62
2022/10/26 11:16:22;;;;;;;;;;;;;;;;;;5033809;28;19917;-61
2022/10/26 11:18:48;;;;;;;;;;;;;;;;;;5034063;28;19959;-61
2022/10/26 11:21:14;;;;;;;;;;;;;;;;;;5034067;28;19915;-61
2022/10/26 11:23:40;;;;;;;;;;;;;;;;;;5033275;28;19913;-61
2022/10/26 11:26:06;;;;;;;;;;;;;;;;;;5033322;28;19953;-62
2022/10/26 11:28:32;;;;;;;;;;;;;;;;;;5033367;28;19943;-62
2022/10/26 11:30:58;;;;;;;;;;;;;;;;;;5033150;28;19917;-62
2022/10/26 11:33:23;;;;;;;;;;;;;;;;;;5033725;28;20027;-61
2022/10/26 11:35:49;;;;;;;;;;;;;;;;;;5033387;28;19950;-64
2022/10/26 11:38:15;;;;;;;;;;;;;;;;;;5033256;28;19913;-59
2022/10/26 11:40:41;;;;;;;;;;;;;;;;;;5033642;28;20516;-62
2022/10/26 11:43:07;;;;;;;;;;;;;;;;;;5032849;28;20476;-62
2022/10/26 11:45:33;;;;;;;;;;;;;;;;;;5032924;28;19936;-61
2022/10/26 11:47:59;;;;;;;;;;;;;;;;;;5033003;28;19909;-61
2022/10/26 11:50:25;;;;;;;;;;;;;;;;;;5031704;28;19921;-62
2022/10/26 11:52:51;;;;;;;;;;;;;;;;;;5032669;28;19913;-60
2022/10/26 11:55:16;;;;;;;;;;;;;;;;;;5032801;28;19921;-61
2022/10/26 11:57:44;;;;;;;;;;;;;;;;;;5033453;28;19956;-62
2022/10/26 12:00:10;;;;;;;;;;;;;;;;;;5026893;28;19963;-60
2022/10/26 12:02:36;;;;;;;;;;;;;;;;;;5032758;28;19909;-60
2022/10/26 12:05:02;;;;;;;;;;;;;;;;;;5032766;28;20004;-62
2022/10/26 12:07:28;;;;;;;;;;;;;;;;;;5032931;28;19917;-61
2022/10/26 12:09:53;;;;;;;;;;;;;;;;;;5033044;28;19992;-62
2022/10/26 12:12:19;;;;;;;;;;;;;;;;;;5032825;28;20382;-62
2022/10/26 12:14:45;;;;;;;;;;;;;;;;;;5032608;28;19964;-61
2022/10/26 12:17:11;;;;;;;;;;;;;;;;;;5032448;28;20025;-61
2022/10/26 12:19:37;;;;;;;;;;;;;;;;;;5032089;28;19917;-62
2022/10/26 12:22:03;;;;;;;;;;;;;;;;;;5032097;28;19913;-61
2022/10/26 12:24:29;;;;;;;;;;;;;;;;;;5031637;28;19944;-61
2022/10/26 12:26:55;;;;;;;;;;;;;;;;;;5032427;28;19909;-60
2022/10/26 12:29:21;;;;;;;;;;;;;;;;;;5032091;28;19920;-61
2022/10/26 12:31:47;;;;;;;;;;;;;;;;;;5032029;28;19909;-60
2022/10/26 12:34:13;;;;;;;;;;;;;;;;;;5032304;28;19909;-61
2022/10/26 12:36:39;;;;;;;;;;;;;;;;;;5032188;28;19917;-61
2022/10/26 12:39:05;;;;;;;;;;;;;;;;;;5031939;28;19916;-61
2022/10/26 12:41:32;;;;;;;;;;;;;;;;;;5031872;28;19956;-62
2022/10/26 12:43:57;;;;;;;;;;;;;;;;;;5032207;28;19909;-61
2022/10/26 12:46:23;;;;;;;;;;;;;;;;;;5032150;28;19920;-60
2022/10/26 12:48:49;;;;;;;;;;;;;;;;;;5032059;28;19917;-63
2022/10/26 12:51:15;;;;;;;;;;;;;;;;;;5031419;28;19913;-62
2022/10/26 12:53:41;;;;;;;;;;;;;;;;;;5031640;28;19959;-61
2022/10/26 12:56:07;;;;;;;;;;;;;;;;;;5031812;28;19917;-61
2022/10/26 12:58:33;;;;;;;;;;;;;;;;;;5025553;28;19913;-62
2022/10/26 13:00:59;;;;;;;;;;;;;;;;;;5031862;28;19913;-62
2022/10/26 13:03:25;;;;;;;;;;;;;;;;;;5031922;28;19920;-62
2022/10/26 13:05:51;;;;;;;;;;;;;;;;;;5025672;28;20215;-61
2022/10/26 13:08:17;;;;;;;;;;;;;;;;;;5032017;28;20327;-62
2022/10/26 13:10:42;;;;;;;;;;;;;;;;;;5031677;28;20438;-61
2022/10/26 13:13:08;;;;;;;;;;;;;;;;;;5031636;28;19913;-61
2022/10/26 13:15:34;;;;;;;;;;;;;;;;;;5031511;28;20301;-63
2022/10/26 13:18:00;;;;;;;;;;;;;;;;;;5030985;28;19932;-61
2022/10/26 13:20:26;;;;;;;;;;;;;;;;;;5031508;28;19944;-62
2022/10/26 13:22:52;;;;;;;;;;;;;;;;;;5031296;28;19975;-62
2022/10/26 13:25:18;;;;;;;;;;;;;;;;;;5031585;28;20371;-62
2022/10/26 13:27:44;;;;;;;;;;;;;;;;;;5030254;28;20605;-62
2022/10/26 13:30:10;;;;;;;;;;;;;;;;;;5030766;28;19965;-62
2022/10/26 13:32:36;;;;;;;;;;;;;;;;;;5029043;28;19916;-61
2022/10/26 13:35:02;;;;;;;;;;;;;;;;;;5029441;28;19932;-60
2022/10/26 13:37:27;;;;;;;;;;;;;;;;;;5030033;28;20000;-61
2022/10/26 13:39:54;;;;;;;;;;;;;;;;;;5030765;28;19955;-61
2022/10/26 13:42:20;;;;;;;;;;;;;;;;;;5030785;28;20476;-62
2022/10/26 13:44:46;;;;;;;;;;;;;;;;;;5030637;28;19909;-61
2022/10/26 13:47:12;;;;;;;;;;;;;;;;;;5030171;28;19917;-60
2022/10/26 13:49:38;;;;;;;;;;;;;;;;;;5030109;28;19944;-61
2022/10/26 13:52:04;;;;;;;;;;;;;;;;;;5030805;28;19909;-60
2022/10/26 13:54:30;;;;;;;;;;;;;;;;;;5029489;28;20283;-63
2022/10/26 13:56:55;;;;;;;;;;;;;;;;;;5030735;28;19909;-61
2022/10/26 13:59:21;;;;;;;;;;;;;;;;;;5029736;28;19987;-60
2022/10/26 14:01:47;;;;;;;;;;;;;;;;;;5030788;28;20004;-61
2022/10/26 14:04:13;;;;;;;;;;;;;;;;;;5029729;28;19940;-62
2022/10/26 14:06:41;;;;;;;;;;;;;;;;;;5030682;28;20000;-62
2022/10/26 14:09:07;;;;;;;;;;;;;;;;;;5024326;28;20374;-62
2022/10/26 14:11:33;;;;;;;;;;;;;;;;;;5024248;28;19913;-61
2022/10/26 14:13:59;;;;;;;;;;;;;;;;;;5030385;28;20019;-62
2022/10/26 14:16:25;;;;;;;;;;;;;;;;;;5028374;28;20445;-62
2022/10/26 14:18:51;;;;;;;;;;;;;;;;;;5030741;28;19948;-63
2022/10/26 14:21:17;;;;;;;;;;;;;;;;;;5027369;28;19937;-61
2022/10/26 14:23:43;;;;;;;;;;;;;;;;;;5029118;28;19963;-62
2022/10/26 14:26:09;;;;;;;;;;;;;;;;;;5029932;28;19920;-61
2022/10/26 14:28:34;;;;;;;;;;;;;;;;;;5030770;28;19972;-61
2022/10/26 14:31:00;;;;;;;;;;;;;;;;;;5029347;28;19963;-61
2022/10/26 14:33:26;;;;;;;;;;;;;;;;;;5029813;28;20362;-61
2022/10/26 14:35:52;;;;;;;;;;;;;;;;;;5029697;28;19921;-61
2022/10/26 14:38:18;;;;;;;;;;;;;;;;;;5030002;28;20496;-62
2022/10/26 14:40:44;;;;;;;;;;;;;;;;;;5028057;28;19909;-61
2022/10/26 14:43:10;;;;;;;;;;;;;;;;;;5029521;28;20012;-61
2022/10/26 14:45:36;;;;;;;;;;;;;;;;;;5029105;28;19913;-60
2022/10/26 14:48:02;;;;;;;;;;;;;;;;;;5029376;28;19913;-60
2022/10/26 14:50:32;;;;;;;;;;;;;;;;;;5029457;28;19953;-60
2022/10/26 14:52:58;;;;;;;;;;;;;;;;;;5029815;28;19913;-62
2022/10/26 14:55:24;;;;;;;;;;;;;;;;;;5029519;28;19944;-60
2022/10/26 14:57:49;;;;;;;;;;;;;;;;;;5024328;28;19913;-63
2022/10/26 15:00:15;;;;;;;;;;;;;;;;;;5027367;28;19931;-61
2022/10/26 15:02:41;;;;;;;;;;;;;;;;;;5029353;28;19920;-61
2022/10/26 15:05:07;;;;;;;;;;;;;;;;;;5029192;28;19916;-62
2022/10/26 15:07:33;;;;;;;;;;;;;;;;;;5030076;28;19928;-62
2022/10/26 15:09:59;;;;;;;;;;;;;;;;;;5029452;28;19920;-61
2022/10/26 15:12:25;;;;;;;;;;;;;;;;;;5030128;28;19963;-62
2022/10/26 15:14:51;;;;;;;;;;;;;;;;;;5028547;28;19937;-61
2022/10/26 15:17:17;;;;;;;;;;;;;;;;;;5029716;28;20000;-63
2022/10/26 15:19:42;;;;;;;;;;;;;;;;;;5029804;28;19948;-61
2022/10/26 15:22:08;;;;;;;;;;;;;;;;;;5028978;28;19916;-61
2022/10/26 15:24:34;;;;;;;;;;;;;;;;;;5029765;28;19916;-61
2022/10/26 15:27:00;;;;;;;;;;;;;;;;;;5029818;28;19911;-61
2022/10/26 15:29:26;;;;;;;;;;;;;;;;;;5029319;28;20023;-61
2022/10/26 15:31:52;;;;;;;;;;;;;;;;;;5028946;28;20429;-63
2022/10/26 15:34:18;;;;;;;;;;;;;;;;;;5028979;28;20004;-61
2022/10/26 15:36:44;;;;;;;;;;;;;;;;;;5029048;28;19909;-61
2022/10/26 15:39:10;;;;;;;;;;;;;;;;;;5028552;28;19909;-60
2022/10/26 15:41:36;;;;;;;;;;;;;;;;;;5028794;28;19913;-61
2022/10/26 15:44:04;;;;;;;;;;;;;;;;;;5029125;28;19913;-58
2022/10/26 15:46:30;;;;;;;;;;;;;;;;;;5028104;28;20405;-62
2022/10/26 15:48:56;;;;;;;;;;;;;;;;;;5029174;28;20018;-62
2022/10/26 15:51:22;;;;;;;;;;;;;;;;;;5028684;28;19917;-62
2022/10/26 15:53:48;;;;;;;;;;;;;;;;;;5028842;28;20011;-62
2022/10/26 15:56:14;;;;;;;;;;;;;;;;;;5028720;28;19923;-60
2022/10/26 15:58:39;;;;;;;;;;;;;;;;;;5028461;28;19913;-62
2022/10/26 16:01:05;;;;;;;;;;;;;;;;;;5031871;28;20428;-61
2022/10/26 16:03:31;;;;;;;;;;;;;;;;;;5032078;28;20004;-62
2022/10/26 16:05:57;;;;;;;;;;;;;;;;;;5028464;28;20334;-62
2022/10/26 16:08:23;;;;;;;;;;;;;;;;;;5032841;28;19960;-61
2022/10/26 16:10:50;;;;;;;;;;;;;;;;;;5027459;28;19936;-60
2022/10/26 16:13:15;;;;;;;;;;;;;;;;;;5030893;28;20004;-61
2022/10/26 16:15:41;;;;;;;;;;;;;;;;;;5033150;28;20009;-62
2022/10/26 16:18:07;;;;;;;;;;;;;;;;;;5032953;28;19947;-63
2022/10/26 16:20:33;;;;;;;;;;;;;;;;;;5026481;28;19932;-62
2022/10/26 16:23:05;;;;;;;;;;;;;;;;;;5032886;28;19909;-62
2022/10/26 16:25:31;;;;;;;;;;;;;;;;;;5026851;28;19920;-62
2022/10/26 16:27:57;;;;;;;;;;;;;;;;;;5033358;28;19913;-61
2022/10/26 16:30:22;;;;;;;;;;;;;;;;;;5031820;28;20330;-62
2022/10/26 16:32:48;;;;;;;;;;;;;;;;;;5026579;28;19916;-62
2022/10/26 16:35:14;;;;;;;;;;;;;;;;;;5032678;28;19939;-61